sensor_id;sensor_type;location;lat;lon;timestamp;pressure;altitude;pressure_sealevel;temperature;humidity
61488;BME280;47351;53.326;-6.298;2022-09-17T00:01:55;102347.27;;;10.06;64.33
61488;BME280;47351;53.326;-6.298;2022-09-17T00:05:03;102353.20;;;10.03;64.27
61488;BME280;47351;53.326;-6.298;2022-09-17T00:08:13;102355.06;;;9.99;64.39
61488;BME280;47351;53.326;-6.298;2022-09-17T00:11:26;102350.46;;;9.94;64.40
61488;BME280;47351;53.326;-6.298;2022-09-17T00:14:26;102351.23;;;9.91;64.65
61488;BME280;47351;53.326;-6.298;2022-09-17T00:17:48;102352.70;;;9.90;64.94
61488;BME280;47351;53.326;-6.298;2022-09-17T00:24:27;102349.45;;;9.86;65.14
61488;BME280;47351;53.326;-6.298;2022-09-17T00:30:56;102341.36;;;9.77;65.13
61488;BME280;47351;53.326;-6.298;2022-09-17T00:34:07;102340.55;;;9.73;65.38
61488;BME280;47351;53.326;-6.298;2022-09-17T00:37:17;102341.96;;;9.69;65.37
61488;BME280;47351;53.326;-6.298;2022-09-17T00:40:17;102345.00;;;9.66;65.61
61488;BME280;47351;53.326;-6.298;2022-09-17T00:43:37;102348.72;;;9.62;65.57
61488;BME280;47351;53.326;-6.298;2022-09-17T00:46:52;102346.85;;;9.56;65.62
61488;BME280;47351;53.326;-6.298;2022-09-17T00:57:49;102341.92;;;9.38;66.24
61488;BME280;47351;53.326;-6.298;2022-09-17T01:00:58;102346.23;;;9.35;66.41
61488;BME280;47351;53.326;-6.298;2022-09-17T01:04:19;102349.04;;;9.33;66.56
61488;BME280;47351;53.326;-6.298;2022-09-17T01:14:10;102342.31;;;9.20;66.61
61488;BME280;47351;53.326;-6.298;2022-09-17T01:17:13;102343.80;;;9.16;66.85
61488;BME280;47351;53.326;-6.298;2022-09-17T01:20:38;102350.42;;;9.13;67.11
61488;BME280;47351;53.326;-6.298;2022-09-17T01:24:13;102357.45;;;9.13;67.35
61488;BME280;47351;53.326;-6.298;2022-09-17T01:27:47;102360.55;;;9.09;67.34
61488;BME280;47351;53.326;-6.298;2022-09-17T01:31:04;102357.21;;;9.03;67.32
61488;BME280;47351;53.326;-6.298;2022-09-17T01:34:25;102348.12;;;8.98;67.49
61488;BME280;47351;53.326;-6.298;2022-09-17T01:37:41;102341.79;;;8.97;67.82
61488;BME280;47351;53.326;-6.298;2022-09-17T01:40:54;102340.06;;;8.96;67.96
61488;BME280;47351;53.326;-6.298;2022-09-17T01:48:12;102345.55;;;8.94;68.30
61488;BME280;47351;53.326;-6.298;2022-09-17T01:51:09;102340.45;;;8.93;68.38
61488;BME280;47351;53.326;-6.298;2022-09-17T02:02:09;102352.66;;;8.87;68.62
61488;BME280;47351;53.326;-6.298;2022-09-17T02:09:18;102358.66;;;8.82;68.91
61488;BME280;47351;53.326;-6.298;2022-09-17T02:12:55;102360.54;;;8.80;68.97
61488;BME280;47351;53.326;-6.298;2022-09-17T02:16:08;102364.27;;;8.78;69.07
61488;BME280;47351;53.326;-6.298;2022-09-17T02:19:30;102363.94;;;8.75;69.16
61488;BME280;47351;53.326;-6.298;2022-09-17T02:22:45;102361.05;;;8.73;69.26
61488;BME280;47351;53.326;-6.298;2022-09-17T02:26:01;102358.39;;;8.71;69.44
61488;BME280;47351;53.326;-6.298;2022-09-17T02:33:00;102358.23;;;8.68;69.78
61488;BME280;47351;53.326;-6.298;2022-09-17T02:36:13;102362.48;;;8.68;69.92
61488;BME280;47351;53.326;-6.298;2022-09-17T02:39:23;102357.98;;;8.66;69.88
61488;BME280;47351;53.326;-6.298;2022-09-17T02:42:42;102359.12;;;8.65;70.05
61488;BME280;47351;53.326;-6.298;2022-09-17T02:46:01;102360.87;;;8.63;70.09
61488;BME280;47351;53.326;-6.298;2022-09-17T02:49:08;102357.10;;;8.61;70.18
61488;BME280;47351;53.326;-6.298;2022-09-17T02:52:22;102351.44;;;8.60;70.39
61488;BME280;47351;53.326;-6.298;2022-09-17T02:55:44;102349.59;;;8.58;70.40
61488;BME280;47351;53.326;-6.298;2022-09-17T02:58:59;102345.39;;;8.58;70.53
61488;BME280;47351;53.326;-6.298;2022-09-17T03:02:19;102349.20;;;8.56;70.62
61488;BME280;47351;53.326;-6.298;2022-09-17T03:05:31;102351.96;;;8.55;70.84
61488;BME280;47351;53.326;-6.298;2022-09-17T03:08:56;102351.52;;;8.56;70.96
61488;BME280;47351;53.326;-6.298;2022-09-17T03:16:08;102343.55;;;8.53;71.12
61488;BME280;47351;53.326;-6.298;2022-09-17T03:23:46;102346.02;;;8.49;71.32
61488;BME280;47351;53.326;-6.298;2022-09-17T03:26:56;102348.89;;;8.48;71.47
61488;BME280;47351;53.326;-6.298;2022-09-17T03:33:59;102342.08;;;8.41;71.32
61488;BME280;47351;53.326;-6.298;2022-09-17T03:37:11;102341.77;;;8.38;71.45
61488;BME280;47351;53.326;-6.298;2022-09-17T03:40:27;102337.41;;;8.33;71.60
61488;BME280;47351;53.326;-6.298;2022-09-17T03:43:36;102342.02;;;8.31;71.76
61488;BME280;47351;53.326;-6.298;2022-09-17T03:46:48;102347.90;;;8.30;72.13
61488;BME280;47351;53.326;-6.298;2022-09-17T03:49:59;102350.83;;;8.29;72.10
61488;BME280;47351;53.326;-6.298;2022-09-17T03:53:09;102349.86;;;8.28;72.24
61488;BME280;47351;53.326;-6.298;2022-09-17T03:56:20;102342.11;;;8.27;72.31
61488;BME280;47351;53.326;-6.298;2022-09-17T03:59:43;102342.36;;;8.23;72.22
61488;BME280;47351;53.326;-6.298;2022-09-17T04:02:53;102345.98;;;8.20;72.20
61488;BME280;47351;53.326;-6.298;2022-09-17T04:09:56;102345.48;;;8.13;72.51
61488;BME280;47351;53.326;-6.298;2022-09-17T04:13:07;102344.28;;;8.10;72.62
61488;BME280;47351;53.326;-6.298;2022-09-17T04:16:17;102338.48;;;8.09;72.87
61488;BME280;47351;53.326;-6.298;2022-09-17T04:19:41;102343.85;;;8.09;72.99
61488;BME280;47351;53.326;-6.298;2022-09-17T04:26:23;102349.52;;;8.06;73.17
61488;BME280;47351;53.326;-6.298;2022-09-17T04:29:34;102351.70;;;8.06;73.33
61488;BME280;47351;53.326;-6.298;2022-09-17T04:32:44;102345.63;;;8.04;73.31
61488;BME280;47351;53.326;-6.298;2022-09-17T04:43:36;102347.18;;;7.96;73.57
61488;BME280;47351;53.326;-6.298;2022-09-17T04:46:47;102344.81;;;7.95;73.75
61488;BME280;47351;53.326;-6.298;2022-09-17T04:49:58;102345.27;;;7.93;73.79
61488;BME280;47351;53.326;-6.298;2022-09-17T04:53:14;102348.22;;;7.92;73.86
61488;BME280;47351;53.326;-6.298;2022-09-17T04:56:24;102346.06;;;7.88;73.83
61488;BME280;47351;53.326;-6.298;2022-09-17T04:59:37;102352.14;;;7.86;73.95
61488;BME280;47351;53.326;-6.298;2022-09-17T05:02:48;102355.30;;;7.83;74.03
61488;BME280;47351;53.326;-6.298;2022-09-17T05:05:59;102354.58;;;7.81;74.18
61488;BME280;47351;53.326;-6.298;2022-09-17T05:12:38;102355.40;;;7.76;74.28
61488;BME280;47351;53.326;-6.298;2022-09-17T05:19:00;102346.13;;;7.71;74.52
61488;BME280;47351;53.326;-6.298;2022-09-17T05:22:11;102344.63;;;7.70;74.53
61488;BME280;47351;53.326;-6.298;2022-09-17T05:25:20;102354.40;;;7.70;74.71
61488;BME280;47351;53.326;-6.298;2022-09-17T05:28:32;102358.54;;;7.67;74.75
61488;BME280;47351;53.326;-6.298;2022-09-17T05:31:45;102363.23;;;7.65;74.89
61488;BME280;47351;53.326;-6.298;2022-09-17T05:34:55;102356.33;;;7.62;74.87
61488;BME280;47351;53.326;-6.298;2022-09-17T05:38:05;102358.22;;;7.60;74.97
61488;BME280;47351;53.326;-6.298;2022-09-17T05:41:17;102355.52;;;7.55;74.88
61488;BME280;47351;53.326;-6.298;2022-09-17T05:44:28;102355.95;;;7.54;75.24
61488;BME280;47351;53.326;-6.298;2022-09-17T05:47:38;102355.13;;;7.53;75.35
61488;BME280;47351;53.326;-6.298;2022-09-17T05:50:49;102360.81;;;7.53;75.58
61488;BME280;47351;53.326;-6.298;2022-09-17T05:53:59;102359.67;;;7.54;75.69
61488;BME280;47351;53.326;-6.298;2022-09-17T05:56:57;102354.70;;;7.54;75.70
61488;BME280;47351;53.326;-6.298;2022-09-17T06:00:12;102355.43;;;7.54;75.55
61488;BME280;47351;53.326;-6.298;2022-09-17T06:07:20;102359.92;;;7.48;75.62
61488;BME280;47351;53.326;-6.298;2022-09-17T06:10:50;102360.97;;;7.51;75.87
61488;BME280;47351;53.326;-6.298;2022-09-17T06:14:01;102360.73;;;7.54;76.05
61488;BME280;47351;53.326;-6.298;2022-09-17T06:17:12;102359.39;;;7.59;76.10
61488;BME280;47351;53.326;-6.298;2022-09-17T06:20:29;102361.89;;;7.64;75.95
61488;BME280;47351;53.326;-6.298;2022-09-17T06:23:54;102357.77;;;7.70;75.91
61488;BME280;47351;53.326;-6.298;2022-09-17T06:27:16;102358.72;;;7.77;76.03
61488;BME280;47351;53.326;-6.298;2022-09-17T06:34:15;102366.00;;;7.94;75.89
61488;BME280;47351;53.326;-6.298;2022-09-17T06:37:27;102365.58;;;8.00;75.77
61488;BME280;47351;53.326;-6.298;2022-09-17T06:40:50;102372.39;;;8.10;75.71
61488;BME280;47351;53.326;-6.298;2022-09-17T06:44:00;102371.59;;;8.20;75.57
61488;BME280;47351;53.326;-6.298;2022-09-17T06:47:24;102375.23;;;8.29;75.33
61488;BME280;47351;53.326;-6.298;2022-09-17T06:50:34;102375.46;;;8.39;75.14
61488;BME280;47351;53.326;-6.298;2022-09-17T06:53:50;102384.83;;;8.59;74.97
61488;BME280;47351;53.326;-6.298;2022-09-17T06:57:00;102391.23;;;8.69;74.80
61488;BME280;47351;53.326;-6.298;2022-09-17T06:59:53;102391.73;;;8.85;74.73
61488;BME280;47351;53.326;-6.298;2022-09-17T07:02:43;102385.27;;;9.09;74.54
61488;BME280;47351;53.326;-6.298;2022-09-17T07:05:39;102383.02;;;9.33;74.18
61488;BME280;47351;53.326;-6.298;2022-09-17T07:08:52;102382.37;;;9.85;73.92
61488;BME280;47351;53.326;-6.298;2022-09-17T07:11:43;102381.06;;;10.26;73.20
61488;BME280;47351;53.326;-6.298;2022-09-17T07:14:36;102381.91;;;10.74;72.04
61488;BME280;47351;53.326;-6.298;2022-09-17T07:17:22;102376.94;;;11.13;71.15
61488;BME280;47351;53.326;-6.298;2022-09-17T07:20:52;102375.55;;;11.48;69.73
61488;BME280;47351;53.326;-6.298;2022-09-17T07:23:28;102371.95;;;11.73;69.39
61488;BME280;47351;53.326;-6.298;2022-09-17T07:26:31;102368.20;;;11.99;68.34
61488;BME280;47351;53.326;-6.298;2022-09-17T07:29:42;102376.55;;;12.32;67.75
61488;BME280;47351;53.326;-6.298;2022-09-17T07:32:40;102377.03;;;12.75;66.84
61488;BME280;47351;53.326;-6.298;2022-09-17T07:35:18;102374.50;;;13.25;65.92
61488;BME280;47351;53.326;-6.298;2022-09-17T07:38:21;102370.99;;;13.88;65.19
61488;BME280;47351;53.326;-6.298;2022-09-17T07:41:12;102370.42;;;14.38;63.99
61488;BME280;47351;53.326;-6.298;2022-09-17T07:43:54;102374.06;;;14.70;62.23
61488;BME280;47351;53.326;-6.298;2022-09-17T07:46:37;102376.27;;;15.31;61.51
61488;BME280;47351;53.326;-6.298;2022-09-17T07:49:07;102371.77;;;16.09;60.76
61488;BME280;47351;53.326;-6.298;2022-09-17T07:51:52;102374.79;;;16.20;58.83
61488;BME280;47351;53.326;-6.298;2022-09-17T07:54:34;102371.69;;;16.10;58.35
61488;BME280;47351;53.326;-6.298;2022-09-17T07:57:20;102369.23;;;15.82;57.21
61488;BME280;47351;53.326;-6.298;2022-09-17T08:00:11;102370.80;;;15.33;57.53
61488;BME280;47351;53.326;-6.298;2022-09-17T08:02:54;102372.48;;;14.96;58.14
61488;BME280;47351;53.326;-6.298;2022-09-17T08:05:30;102375.33;;;14.66;58.05
61488;BME280;47351;53.326;-6.298;2022-09-17T08:08:19;102375.45;;;14.43;58.25
61488;BME280;47351;53.326;-6.298;2022-09-17T08:10:55;102377.34;;;14.15;58.32
61488;BME280;47351;53.326;-6.298;2022-09-17T08:13:40;102377.73;;;13.96;58.78
61488;BME280;47351;53.326;-6.298;2022-09-17T08:16:16;102383.87;;;13.71;58.85
61488;BME280;47351;53.326;-6.298;2022-09-17T08:19:18;102388.27;;;13.58;59.68
61488;BME280;47351;53.326;-6.298;2022-09-17T08:22:24;102384.36;;;13.73;59.92
61488;BME280;47351;53.326;-6.298;2022-09-17T08:25:41;102383.48;;;14.32;59.15
61488;BME280;47351;53.326;-6.298;2022-09-17T08:28:33;102382.05;;;14.48;58.64
61488;BME280;47351;53.326;-6.298;2022-09-17T08:31:11;102386.76;;;14.45;58.66
61488;BME280;47351;53.326;-6.298;2022-09-17T08:34:05;102394.55;;;14.55;58.55
61488;BME280;47351;53.326;-6.298;2022-09-17T08:36:48;102394.70;;;14.78;57.69
61488;BME280;47351;53.326;-6.298;2022-09-17T08:39:18;102391.28;;;15.73;57.32
61488;BME280;47351;53.326;-6.298;2022-09-17T08:41:54;102384.77;;;17.70;55.02
61488;BME280;47351;53.326;-6.298;2022-09-17T08:44:31;102383.81;;;19.79;52.90
61488;BME280;47351;53.326;-6.298;2022-09-17T08:47:03;102389.63;;;20.56;50.17
61488;BME280;47351;53.326;-6.298;2022-09-17T08:49:39;102379.28;;;21.95;47.67
61488;BME280;47351;53.326;-6.298;2022-09-17T08:52:14;102376.39;;;23.35;45.68
61488;BME280;47351;53.326;-6.298;2022-09-17T08:54:47;102373.84;;;24.42;42.96
61488;BME280;47351;53.326;-6.298;2022-09-17T08:57:20;102371.95;;;24.46;41.86
61488;BME280;47351;53.326;-6.298;2022-09-17T08:59:55;102377.19;;;25.04;40.06
61488;BME280;47351;53.326;-6.298;2022-09-17T09:02:31;102373.08;;;25.83;39.49
61488;BME280;47351;53.326;-6.298;2022-09-17T09:05:07;102368.30;;;26.73;37.89
61488;BME280;47351;53.326;-6.298;2022-09-17T09:07:40;102370.70;;;27.33;36.90
61488;BME280;47351;53.326;-6.298;2022-09-17T09:10:13;102369.67;;;27.99;35.97
61488;BME280;47351;53.326;-6.298;2022-09-17T09:12:48;102365.88;;;28.65;35.20
61488;BME280;47351;53.326;-6.298;2022-09-17T09:15:20;102366.39;;;29.28;33.93
61488;BME280;47351;53.326;-6.298;2022-09-17T09:17:53;102368.53;;;29.90;33.41
61488;BME280;47351;53.326;-6.298;2022-09-17T09:20:27;102366.10;;;30.45;32.22
61488;BME280;47351;53.326;-6.298;2022-09-17T09:23:01;102361.84;;;30.88;31.15
61488;BME280;47351;53.326;-6.298;2022-09-17T09:25:41;102364.86;;;31.26;30.39
61488;BME280;47351;53.326;-6.298;2022-09-17T09:28:29;102366.11;;;31.90;30.18
61488;BME280;47351;53.326;-6.298;2022-09-17T09:31:07;102362.73;;;32.78;29.42
61488;BME280;47351;53.326;-6.298;2022-09-17T09:33:41;102363.21;;;33.36;28.11
61488;BME280;47351;53.326;-6.298;2022-09-17T09:36:15;102364.02;;;33.76;27.20
61488;BME280;47351;53.326;-6.298;2022-09-17T09:38:54;102368.76;;;34.16;26.40
61488;BME280;47351;53.326;-6.298;2022-09-17T09:41:30;102368.60;;;34.16;25.15
61488;BME280;47351;53.326;-6.298;2022-09-17T09:44:01;102371.98;;;34.06;24.92
61488;BME280;47351;53.326;-6.298;2022-09-17T09:49:32;102359.30;;;34.25;24.85
61488;BME280;47351;53.326;-6.298;2022-09-17T09:52:08;102349.27;;;34.68;24.41
61488;BME280;47351;53.326;-6.298;2022-09-17T09:54:43;102356.20;;;34.97;23.55
61488;BME280;47351;53.326;-6.298;2022-09-17T09:57:19;102356.44;;;35.00;23.12
61488;BME280;47351;53.326;-6.298;2022-09-17T09:59:54;102356.65;;;35.01;22.35
61488;BME280;47351;53.326;-6.298;2022-09-17T10:02:41;102355.98;;;34.80;21.74
61488;BME280;47351;53.326;-6.298;2022-09-17T10:05:12;102352.83;;;34.88;22.12
61488;BME280;47351;53.326;-6.298;2022-09-17T10:07:43;102350.14;;;35.16;22.00
61488;BME280;47351;53.326;-6.298;2022-09-17T10:10:16;102347.06;;;35.36;21.42
61488;BME280;47351;53.326;-6.298;2022-09-17T10:12:51;102345.73;;;35.43;20.94
61488;BME280;47351;53.326;-6.298;2022-09-17T10:15:33;102349.31;;;35.25;21.06
61488;BME280;47351;53.326;-6.298;2022-09-17T10:18:13;102355.09;;;33.87;22.01
61488;BME280;47351;53.326;-6.298;2022-09-17T10:20:51;102354.38;;;32.05;22.62
61488;BME280;47351;53.326;-6.298;2022-09-17T10:23:22;102358.35;;;29.41;24.16
61488;BME280;47351;53.326;-6.298;2022-09-17T10:25:52;102358.83;;;27.43;25.94
61488;BME280;47351;53.326;-6.298;2022-09-17T10:31:06;102372.58;;;24.48;28.93
61488;BME280;47351;53.326;-6.298;2022-09-17T10:33:51;102367.04;;;23.50;30.37
61488;BME280;47351;53.326;-6.298;2022-09-17T10:36:40;102367.15;;;22.43;31.91
61488;BME280;47351;53.326;-6.298;2022-09-17T10:39:33;102370.95;;;22.00;33.27
61488;BME280;47351;53.326;-6.298;2022-09-17T10:42:04;102366.70;;;24.21;31.94
61488;BME280;47351;53.326;-6.298;2022-09-17T10:44:34;102362.23;;;24.97;31.34
61488;BME280;47351;53.326;-6.298;2022-09-17T10:47:05;102352.73;;;25.37;30.85
61488;BME280;47351;53.326;-6.298;2022-09-17T10:49:40;102351.19;;;26.34;29.80
61488;BME280;47351;53.326;-6.298;2022-09-17T10:52:12;102358.41;;;25.39;29.98
61488;BME280;47351;53.326;-6.298;2022-09-17T10:54:51;102358.35;;;24.35;29.75
61488;BME280;47351;53.326;-6.298;2022-09-17T10:57:27;102356.83;;;23.48;30.38
61488;BME280;47351;53.326;-6.298;2022-09-17T11:00:03;102358.14;;;23.07;30.71
61488;BME280;47351;53.326;-6.298;2022-09-17T11:02:56;102357.16;;;24.01;29.66
61488;BME280;47351;53.326;-6.298;2022-09-17T11:05:44;102357.08;;;25.63;28.40
61488;BME280;47351;53.326;-6.298;2022-09-17T11:08:18;102353.23;;;28.39;26.71
61488;BME280;47351;53.326;-6.298;2022-09-17T11:10:52;102347.04;;;28.78;25.45
61488;BME280;47351;53.326;-6.298;2022-09-17T11:13:29;102346.42;;;29.69;25.15
61488;BME280;47351;53.326;-6.298;2022-09-17T11:16:10;102338.45;;;28.60;25.15
61488;BME280;47351;53.326;-6.298;2022-09-17T11:18:43;102334.60;;;27.36;26.01
61488;BME280;47351;53.326;-6.298;2022-09-17T11:21:22;102337.14;;;25.95;26.80
61488;BME280;47351;53.326;-6.298;2022-09-17T11:26:44;102331.73;;;23.40;29.29
61488;BME280;47351;53.326;-6.298;2022-09-17T11:29:22;102333.86;;;23.04;30.00
61488;BME280;47351;53.326;-6.298;2022-09-17T11:31:54;102327.70;;;22.95;29.74
61488;BME280;47351;53.326;-6.298;2022-09-17T11:34:31;102323.95;;;25.31;28.63
61488;BME280;47351;53.326;-6.298;2022-09-17T11:37:05;102319.73;;;26.94;27.54
61488;BME280;47351;53.326;-6.298;2022-09-17T11:39:41;102309.16;;;29.30;25.84
61488;BME280;47351;53.326;-6.298;2022-09-17T11:42:53;102309.71;;;29.76;24.71
61488;BME280;47351;53.326;-6.298;2022-09-17T11:45:26;102308.56;;;28.92;25.49
61488;BME280;47351;53.326;-6.298;2022-09-17T11:47:59;102311.57;;;27.95;25.60
61488;BME280;47351;53.326;-6.298;2022-09-17T11:50:30;102311.77;;;27.05;26.23
61488;BME280;47351;53.326;-6.298;2022-09-17T11:53:03;102315.44;;;28.40;25.60
61488;BME280;47351;53.326;-6.298;2022-09-17T11:55:36;102314.73;;;28.60;25.92
61488;BME280;47351;53.326;-6.298;2022-09-17T11:58:10;102312.21;;;28.23;25.50
61488;BME280;47351;53.326;-6.298;2022-09-17T12:00:47;102312.16;;;27.35;26.16
61488;BME280;47351;53.326;-6.298;2022-09-17T12:03:25;102307.28;;;27.10;26.52
61488;BME280;47351;53.326;-6.298;2022-09-17T12:05:59;102308.48;;;26.64;26.80
61488;BME280;47351;53.326;-6.298;2022-09-17T12:08:32;102299.86;;;27.74;26.09
61488;BME280;47351;53.326;-6.298;2022-09-17T12:11:06;102292.10;;;29.46;24.83
61488;BME280;47351;53.326;-6.298;2022-09-17T12:13:51;102284.39;;;30.35;23.49
61488;BME280;47351;53.326;-6.298;2022-09-17T12:16:23;102285.41;;;30.27;23.48
61488;BME280;47351;53.326;-6.298;2022-09-17T12:19:07;102286.06;;;31.47;23.13
61488;BME280;47351;53.326;-6.298;2022-09-17T12:21:41;102284.36;;;32.31;22.46
61488;BME280;47351;53.326;-6.298;2022-09-17T12:24:29;102280.80;;;33.18;22.26
61488;BME280;47351;53.326;-6.298;2022-09-17T12:27:08;102282.33;;;33.42;21.52
61488;BME280;47351;53.326;-6.298;2022-09-17T12:32:36;102280.20;;;29.60;23.17
61488;BME280;47351;53.326;-6.298;2022-09-17T12:35:15;102279.90;;;29.19;23.69
61488;BME280;47351;53.326;-6.298;2022-09-17T12:37:52;102276.66;;;29.32;23.13
61488;BME280;47351;53.326;-6.298;2022-09-17T12:40:31;102274.42;;;28.62;23.76
61488;BME280;47351;53.326;-6.298;2022-09-17T12:43:11;102269.54;;;28.26;24.12
61488;BME280;47351;53.326;-6.298;2022-09-17T12:45:54;102266.73;;;29.91;23.20
61488;BME280;47351;53.326;-6.298;2022-09-17T12:48:41;102264.11;;;30.80;22.58
61488;BME280;47351;53.326;-6.298;2022-09-17T12:51:18;102259.80;;;31.71;21.64
61488;BME280;47351;53.326;-6.298;2022-09-17T12:53:57;102255.20;;;31.47;21.56
61488;BME280;47351;53.326;-6.298;2022-09-17T12:56:33;102258.40;;;32.01;21.46
61488;BME280;47351;53.326;-6.298;2022-09-17T12:59:09;102267.83;;;33.07;20.41
61488;BME280;47351;53.326;-6.298;2022-09-17T13:01:51;102264.68;;;33.93;19.87
61488;BME280;47351;53.326;-6.298;2022-09-17T13:04:29;102270.27;;;33.06;20.15
61488;BME280;47351;53.326;-6.298;2022-09-17T13:07:37;102268.12;;;30.58;21.76
61488;BME280;47351;53.326;-6.298;2022-09-17T13:10:16;102261.86;;;29.90;22.19
61488;BME280;47351;53.326;-6.298;2022-09-17T13:12:52;102255.64;;;30.74;21.98
61488;BME280;47351;53.326;-6.298;2022-09-17T13:15:37;102255.26;;;30.67;21.62
61488;BME280;47351;53.326;-6.298;2022-09-17T13:18:15;102252.14;;;30.54;21.45
61488;BME280;47351;53.326;-6.298;2022-09-17T13:20:56;102246.60;;;31.43;21.72
61488;BME280;47351;53.326;-6.298;2022-09-17T13:23:34;102241.53;;;32.53;21.02
61488;BME280;47351;53.326;-6.298;2022-09-17T13:26:05;102244.09;;;33.67;20.30
61488;BME280;47351;53.326;-6.298;2022-09-17T13:28:36;102238.67;;;34.45;19.48
61488;BME280;47351;53.326;-6.298;2022-09-17T13:31:17;102237.02;;;35.01;19.32
61488;BME280;47351;53.326;-6.298;2022-09-17T13:33:54;102235.77;;;35.43;18.77
61488;BME280;47351;53.326;-6.298;2022-09-17T13:36:43;102236.92;;;35.39;18.50
61488;BME280;47351;53.326;-6.298;2022-09-17T13:42:02;102222.77;;;36.71;18.34
61488;BME280;47351;53.326;-6.298;2022-09-17T13:44:36;102221.86;;;36.66;17.76
61488;BME280;47351;53.326;-6.298;2022-09-17T13:47:11;102225.08;;;35.65;18.43
61488;BME280;47351;53.326;-6.298;2022-09-17T13:49:47;102220.04;;;35.03;18.09
61488;BME280;47351;53.326;-6.298;2022-09-17T13:52:35;102216.54;;;34.40;18.52
61488;BME280;47351;53.326;-6.298;2022-09-17T13:55:07;102211.19;;;33.63;18.92
61488;BME280;47351;53.326;-6.298;2022-09-17T13:57:47;102209.05;;;33.50;18.98
61488;BME280;47351;53.326;-6.298;2022-09-17T14:08:49;102193.61;;;33.90;18.91
61488;BME280;47351;53.326;-6.298;2022-09-17T14:11:36;102193.48;;;34.07;18.89
61488;BME280;47351;53.326;-6.298;2022-09-17T14:14:32;102195.94;;;33.42;19.25
61488;BME280;47351;53.326;-6.298;2022-09-17T14:17:08;102193.69;;;32.25;19.67
61488;BME280;47351;53.326;-6.298;2022-09-17T14:19:41;102193.29;;;30.87;20.61
61488;BME280;47351;53.326;-6.298;2022-09-17T14:22:21;102194.02;;;30.32;21.26
61488;BME280;47351;53.326;-6.298;2022-09-17T14:24:53;102190.27;;;30.33;21.67
61488;BME280;47351;53.326;-6.298;2022-09-17T14:30:13;102186.59;;;30.35;22.42
61488;BME280;47351;53.326;-6.298;2022-09-17T14:32:45;102186.06;;;29.60;22.64
61488;BME280;47351;53.326;-6.298;2022-09-17T14:35:20;102190.74;;;28.67;23.17
61488;BME280;47351;53.326;-6.298;2022-09-17T14:37:51;102187.22;;;28.06;23.78
61488;BME280;47351;53.326;-6.298;2022-09-17T14:40:23;102185.36;;;27.60;24.21
61488;BME280;47351;53.326;-6.298;2022-09-17T14:42:54;102177.24;;;27.32;24.65
61488;BME280;47351;53.326;-6.298;2022-09-17T14:45:26;102182.17;;;26.92;24.67
61488;BME280;47351;53.326;-6.298;2022-09-17T14:50:51;102184.65;;;24.80;26.28
61488;BME280;47351;53.326;-6.298;2022-09-17T14:53:21;102190.80;;;23.86;27.15
61488;BME280;47351;53.326;-6.298;2022-09-17T14:55:53;102185.80;;;23.06;28.20
61488;BME280;47351;53.326;-6.298;2022-09-17T14:58:28;102189.46;;;22.70;28.68
61488;BME280;47351;53.326;-6.298;2022-09-17T15:00:59;102187.02;;;22.68;29.38
61488;BME280;47351;53.326;-6.298;2022-09-17T15:03:29;102183.42;;;22.46;29.51
61488;BME280;47351;53.326;-6.298;2022-09-17T15:05:58;102180.65;;;22.39;30.09
61488;BME280;47351;53.326;-6.298;2022-09-17T15:08:28;102175.30;;;22.42;30.27
61488;BME280;47351;53.326;-6.298;2022-09-17T15:10:58;102172.30;;;22.40;30.49
61488;BME280;47351;53.326;-6.298;2022-09-17T15:13:30;102174.41;;;22.13;30.59
61488;BME280;47351;53.326;-6.298;2022-09-17T15:16:01;102168.73;;;21.79;30.90
61488;BME280;47351;53.326;-6.298;2022-09-17T15:18:34;102166.55;;;21.79;31.33
61488;BME280;47351;53.326;-6.298;2022-09-17T15:21:13;102161.08;;;21.92;31.74
61488;BME280;47351;53.326;-6.298;2022-09-17T15:23:50;102163.85;;;22.04;31.86
61488;BME280;47351;53.326;-6.298;2022-09-17T15:26:23;102160.80;;;22.00;31.91
61488;BME280;47351;53.326;-6.298;2022-09-17T15:28:56;102160.31;;;21.87;32.31
61488;BME280;47351;53.326;-6.298;2022-09-17T15:31:27;102163.86;;;21.83;32.23
61488;BME280;47351;53.326;-6.298;2022-09-17T15:33:59;102166.68;;;21.47;32.33
61488;BME280;47351;53.326;-6.298;2022-09-17T15:36:30;102164.62;;;21.33;32.92
61488;BME280;47351;53.326;-6.298;2022-09-17T15:39:06;102158.66;;;21.24;33.13
61488;BME280;47351;53.326;-6.298;2022-09-17T15:41:55;102158.25;;;20.95;33.40
61488;BME280;47351;53.326;-6.298;2022-09-17T15:44:25;102157.84;;;20.59;33.47
61488;BME280;47351;53.326;-6.298;2022-09-17T15:49:52;102160.05;;;19.87;34.55
61488;BME280;47351;53.326;-6.298;2022-09-17T15:52:38;102158.65;;;19.67;35.02
61488;BME280;47351;53.326;-6.298;2022-09-17T15:57:59;102156.64;;;19.58;35.54
61488;BME280;47351;53.326;-6.298;2022-09-17T16:00:30;102154.46;;;19.47;35.72
61488;BME280;47351;53.326;-6.298;2022-09-17T16:03:08;102151.33;;;19.35;35.80
61488;BME280;47351;53.326;-6.298;2022-09-17T16:05:54;102148.47;;;19.23;36.03
61488;BME280;47351;53.326;-6.298;2022-09-17T16:08:33;102150.11;;;18.93;36.28
61488;BME280;47351;53.326;-6.298;2022-09-17T16:11:05;102153.50;;;18.70;36.90
61488;BME280;47351;53.326;-6.298;2022-09-17T16:13:38;102157.77;;;18.47;37.37
61488;BME280;47351;53.326;-6.298;2022-09-17T16:16:11;102159.80;;;18.39;37.58
61488;BME280;47351;53.326;-6.298;2022-09-17T16:18:54;102160.75;;;18.28;37.72
61488;BME280;47351;53.326;-6.298;2022-09-17T16:21:32;102158.69;;;18.27;37.89
61488;BME280;47351;53.326;-6.298;2022-09-17T16:24:06;102158.80;;;18.23;37.95
61488;BME280;47351;53.326;-6.298;2022-09-17T16:26:53;102157.52;;;18.11;38.18
61488;BME280;47351;53.326;-6.298;2022-09-17T16:29:28;102159.77;;;18.03;38.26
61488;BME280;47351;53.326;-6.298;2022-09-17T16:32:01;102166.85;;;17.96;38.61
61488;BME280;47351;53.326;-6.298;2022-09-17T16:38:19;102169.70;;;17.79;39.12
61488;BME280;47351;53.326;-6.298;2022-09-17T16:40:53;102165.38;;;17.72;39.41
61488;BME280;47351;53.326;-6.298;2022-09-17T16:43:25;102166.67;;;17.69;39.60